Time;durP1;ratioP1;P1;durP2;ratioP2;P2;SDS_P1;SDS_P2;PMS_P1;PMS_P2;Temp;Humidity;BMP_temperature;BMP_pressure;BME280_temperature;BME280_humidity;BME280_pressure;Samples;Min_cycle;Max_cycle;Signal;HPM_P1;HPM_P2
2021/12/15 00:01:16;;;;;;;88.38;33.47;;;9.50;99.90;;;;;;4954697;28;20625;-85
2021/12/15 00:03:43;;;;;;;83.43;32.33;;;9.50;99.90;;;;;;4970427;28;20145;-85
2021/12/15 00:06:13;;;;;;;88.10;32.83;;;9.50;99.90;;;;;;4954386;28;20042;-85
2021/12/15 00:08:40;;;;;;;84.43;33.85;;;9.60;99.90;;;;;;4957090;28;20057;-85
2021/12/15 00:11:06;;;;;;;90.60;33.08;;;9.50;99.90;;;;;;4957418;28;20787;-85
2021/12/15 00:13:34;;;;;;;95.68;33.15;;;9.60;99.90;;;;;;4957720;28;20049;-85
2021/12/15 00:15:59;;;;;;;83.75;33.22;;;9.60;99.90;;;;;;4958509;28;20066;-85
2021/12/15 00:18:25;;;;;;;98.90;34.10;;;9.50;99.90;;;;;;4956596;28;20426;-85
2021/12/15 00:20:51;;;;;;;81.43;31.88;;;9.50;99.90;;;;;;4958273;28;20042;-85
2021/12/15 00:23:17;;;;;;;81.32;31.77;;;9.50;99.90;;;;;;4957607;28;20042;-86
2021/12/15 00:25:44;;;;;;;89.07;32.05;;;9.60;99.90;;;;;;4957315;28;20050;-85
2021/12/15 00:28:17;;;;;;;87.28;31.27;;;9.60;99.90;;;;;;4974127;28;20516;-86
2021/12/15 00:30:44;;;;;;;87.05;33.45;;;9.60;99.90;;;;;;4973498;28;20077;-85
2021/12/15 00:33:10;;;;;;;87.97;31.55;;;9.60;99.90;;;;;;4972462;28;20526;-86
2021/12/15 00:35:36;;;;;;;80.68;32.33;;;9.70;99.90;;;;;;4958105;28;20046;-85
2021/12/15 00:38:04;;;;;;;93.10;31.90;;;9.70;99.90;;;;;;4973813;28;20051;-84
2021/12/15 00:40:30;;;;;;;78.68;32.55;;;9.80;99.90;;;;;;4956858;28;20539;-85
2021/12/15 00:42:56;;;;;;;87.88;31.70;;;9.60;99.90;;;;;;4957850;28;20138;-85
2021/12/15 00:45:23;;;;;;;88.28;32.78;;;9.60;99.90;;;;;;4957508;28;20046;-84
2021/12/15 00:47:50;;;;;;;85.75;31.17;;;9.60;99.90;;;;;;4956264;28;20077;-85
2021/12/15 00:50:18;;;;;;;86.38;32.22;;;9.60;99.90;;;;;;4973322;28;20046;-85
2021/12/15 00:52:46;;;;;;;76.18;30.83;;;9.60;99.90;;;;;;4957662;28;20401;-85
2021/12/15 00:55:16;;;;;;;96.18;31.75;;;9.60;99.90;;;;;;4956368;28;20047;-85
2021/12/15 00:57:41;;;;;;;84.75;32.10;;;9.60;99.90;;;;;;4957729;28;20160;-85
2021/12/15 01:00:11;;;;;;;80.60;32.55;;;9.60;99.90;;;;;;4972606;28;20578;-85
2021/12/15 01:02:37;;;;;;;86.03;33.00;;;9.60;99.90;;;;;;4956709;28;20047;-85
2021/12/15 01:05:05;;;;;;;82.32;31.25;;;9.60;99.90;;;;;;4957362;28;20402;-85
2021/12/15 01:07:31;;;;;;;86.85;30.85;;;9.60;99.90;;;;;;4956436;28;20050;-85
2021/12/15 01:09:58;;;;;;;77.25;31.25;;;9.80;99.90;;;;;;4957770;28;20050;-86
2021/12/15 01:12:50;;;;;;;82.47;31.70;;;9.60;99.90;;;;;;4956803;28;20064;-85
2021/12/15 01:20:43;;;;;;;87.90;30.58;;;9.60;99.90;;;;;;4973016;28;20062;-85
2021/12/15 01:23:13;;;;;;;76.80;30.77;;;9.60;99.90;;;;;;4956272;28;20038;-85
2021/12/15 01:25:43;;;;;;;86.95;31.38;;;9.60;99.90;;;;;;4957081;28;20523;-85
2021/12/15 01:28:10;;;;;;;74.25;32.00;;;9.70;99.90;;;;;;4956143;28;20042;-85
2021/12/15 01:30:40;;;;;;;83.50;31.73;;;9.90;99.90;;;;;;4973150;28;20046;-85
2021/12/15 01:33:06;;;;;;;70.80;31.35;;;10.10;99.90;;;;;;4972354;28;20104;-85
2021/12/15 01:35:35;;;;;;;88.78;33.38;;;9.90;99.90;;;;;;4955718;28;20042;-85
2021/12/15 01:38:01;;;;;;;70.72;30.27;;;9.60;99.90;;;;;;4956297;28;20564;-85
2021/12/15 01:40:34;;;;;;;79.80;33.40;;;9.60;99.90;;;;;;4957110;28;20046;-85
2021/12/15 01:43:02;;;;;;;;;;;9.60;99.90;;;;;;4972486;28;20572;-85
2021/12/15 01:48:13;;;;;;;73.60;31.45;;;9.60;99.90;;;;;;4972170;28;20046;-85
2021/12/15 01:50:40;;;;;;;70.47;29.98;;;9.60;99.90;;;;;;4958823;28;20240;-86
2021/12/15 01:53:08;;;;;;;84.72;34.50;;;10.00;99.90;;;;;;4972885;28;20614;-86
2021/12/15 01:55:34;;;;;;;82.20;32.92;;;9.60;99.90;;;;;;4972138;28;20086;-86
2021/12/15 01:58:00;;;;;;;72.80;31.77;;;9.70;99.90;;;;;;4988699;28;20371;-86
2021/12/15 02:00:31;;;;;;;77.35;32.67;;;9.90;99.90;;;;;;4972771;28;20482;-86
2021/12/15 02:02:58;;;;;;;80.60;31.42;;;9.70;99.90;;;;;;4972424;28;20042;-85
2021/12/15 02:05:26;;;;;;;77.93;31.52;;;9.70;99.90;;;;;;4971720;28;20030;-86
2021/12/15 02:07:53;;;;;;;81.20;32.45;;;9.70;99.90;;;;;;4972713;28;20045;-85
2021/12/15 02:10:21;;;;;;;81.00;33.25;;;9.70;99.90;;;;;;4972505;28;20046;-85
2021/12/15 02:12:49;;;;;;;80.35;32.22;;;9.70;99.90;;;;;;4972470;28;20046;-86
2021/12/15 02:15:27;;;;;;;91.50;35.25;;;9.70;99.90;;;;;;4957347;28;20141;-86
2021/12/15 02:17:54;;;;;;;74.20;33.17;;;9.70;99.90;;;;;;4971285;28;20105;-86
2021/12/15 02:20:25;;;;;;;75.80;33.65;;;9.70;99.90;;;;;;4972549;28;20042;-86
2021/12/15 02:22:51;;;;;;;83.95;34.88;;;9.70;99.90;;;;;;4972323;28;20046;-86
2021/12/15 02:25:17;;;;;;;86.65;33.33;;;9.70;99.90;;;;;;4987802;28;20050;-85
2021/12/15 02:27:43;;;;;;;85.82;32.97;;;9.70;99.90;;;;;;4972430;28;20046;-86
2021/12/15 02:30:25;;;;;;;79.75;33.83;;;9.80;99.90;;;;;;4971648;28;20042;-85
2021/12/15 02:33:38;;;;;;;84.45;32.95;;;9.70;99.90;;;;;;4969779;28;20414;-85
2021/12/15 02:38:42;;;;;;;89.60;33.97;;;9.70;99.90;;;;;;4987011;28;20050;-85
2021/12/15 02:41:19;;;;;;;92.20;34.13;;;9.70;99.90;;;;;;4959121;28;20045;-85
2021/12/15 02:43:51;;;;;;;83.00;33.40;;;9.70;99.90;;;;;;4971101;28;20042;-85
2021/12/15 02:46:17;;;;;;;81.22;33.83;;;9.70;99.90;;;;;;4955032;28;20050;-86
2021/12/15 02:48:42;;;;;;;76.68;31.85;;;9.70;99.90;;;;;;4970591;28;20520;-85
2021/12/15 02:51:09;;;;;;;92.18;35.60;;;9.70;99.90;;;;;;4972142;28;20042;-85
2021/12/15 02:53:35;;;;;;;86.55;33.83;;;9.70;99.90;;;;;;4969929;28;20078;-85
2021/12/15 02:56:00;;;;;;;83.13;33.92;;;9.80;99.90;;;;;;4971694;28;20088;-85
2021/12/15 02:58:32;;;;;;;84.30;35.13;;;9.70;99.90;;;;;;4955372;28;20356;-85
2021/12/15 03:01:04;;;;;;;81.35;32.33;;;9.70;99.90;;;;;;4970788;28;20414;-85
2021/12/15 03:06:08;;;;;;;80.35;33.95;;;9.70;99.90;;;;;;4971931;28;20085;-85
2021/12/15 03:08:54;;;;;;;86.97;33.03;;;9.70;99.90;;;;;;4940884;28;20525;-85
2021/12/15 03:16:50;;;;;;;85.50;34.50;;;9.70;99.90;;;;;;4970763;28;20046;-85
2021/12/15 03:19:16;;;;;;;89.07;35.35;;;9.80;99.90;;;;;;4939212;28;20038;-85
2021/12/15 03:21:43;;;;;;;82.50;34.78;;;9.80;99.90;;;;;;4954271;28;20068;-84
2021/12/15 03:24:14;;;;;;;85.22;34.65;;;9.70;99.90;;;;;;4955287;28;20504;-85
2021/12/15 03:26:50;;;;;;;86.60;35.78;;;9.70;99.90;;;;;;4955432;28;20486;-85
2021/12/15 03:35:05;;;;;;;84.82;36.42;;;9.70;99.90;;;;;;4970903;28;20054;-86
2021/12/15 03:37:38;;;;;;;85.95;36.35;;;9.80;99.90;;;;;;4954878;28;20497;-85
2021/12/15 03:40:24;;;;;;;88.38;36.10;;;9.70;99.90;;;;;;4955234;28;20046;-85
2021/12/15 03:42:53;;;;;;;78.65;36.33;;;9.70;99.90;;;;;;4956679;28;20042;-86
2021/12/15 03:45:26;;;;;;;79.90;35.08;;;9.80;99.90;;;;;;4942789;28;20562;-85
2021/12/15 03:47:53;;;;;;;74.30;34.05;;;9.80;99.90;;;;;;4957970;28;20506;-85
2021/12/15 03:50:23;;;;;;;77.63;35.25;;;9.80;99.90;;;;;;4957875;28;20085;-85
2021/12/15 03:52:49;;;;;;;79.78;34.80;;;9.70;99.90;;;;;;4974560;28;20050;-85
2021/12/15 03:55:17;;;;;;;83.60;35.80;;;9.70;99.90;;;;;;4974345;28;20042;-85
2021/12/15 03:57:43;;;;;;;79.72;36.40;;;9.70;99.90;;;;;;4957893;28;20405;-86
2021/12/15 04:00:12;;;;;;;80.75;35.92;;;9.70;99.90;;;;;;4958684;28;20044;-86
2021/12/15 04:02:38;;;;;;;77.10;36.35;;;9.80;99.90;;;;;;4974120;28;20109;-87
2021/12/15 04:05:07;;;;;;;71.93;34.17;;;9.80;99.90;;;;;;4958674;28;20089;-86
2021/12/15 04:07:33;;;;;;;77.18;35.83;;;9.70;99.90;;;;;;4990373;28;20050;-86
2021/12/15 04:09:59;;;;;;;80.63;37.03;;;9.70;99.90;;;;;;4974213;28;20042;-85
2021/12/15 04:12:25;;;;;;;82.38;37.63;;;9.80;99.90;;;;;;4973709;28;20057;-85
2021/12/15 04:15:18;;;;;;;85.35;36.55;;;9.80;99.90;;;;;;4974492;28;20046;-85
2021/12/15 04:17:43;;;;;;;81.70;35.70;;;9.70;99.90;;;;;;4972948;28;20050;-86
2021/12/15 04:20:12;;;;;;;84.22;37.13;;;9.70;99.90;;;;;;4990804;28;20060;-86
2021/12/15 04:22:39;;;;;;;73.15;33.88;;;9.70;99.90;;;;;;4958050;28;20050;-86
2021/12/15 04:25:07;;;;;;;82.60;36.22;;;9.70;99.90;;;;;;4973236;28;20098;-85
2021/12/15 04:27:33;;;;;;;82.68;35.55;;;9.70;99.90;;;;;;4974009;28;20117;-85
2021/12/15 04:29:59;;;;;;;78.45;34.85;;;9.80;99.90;;;;;;4973998;28;20490;-85
2021/12/15 04:32:33;;;;;;;77.50;35.15;;;9.80;99.90;;;;;;4972388;28;20050;-85
2021/12/15 04:34:59;;;;;;;75.78;35.22;;;9.70;99.90;;;;;;4974154;28;20050;-85
2021/12/15 04:37:25;;;;;;;79.40;36.17;;;9.80;99.90;;;;;;4973483;28;20050;-85
2021/12/15 04:39:51;;;;;;;74.45;34.45;;;9.80;99.90;;;;;;4972781;28;20050;-85
2021/12/15 04:42:19;;;;;;;75.22;35.35;;;9.80;99.90;;;;;;4973974;28;20057;-85
2021/12/15 04:44:46;;;;;;;76.88;34.53;;;9.90;99.90;;;;;;4973923;28;20038;-85
2021/12/15 04:47:13;;;;;;;77.18;33.95;;;10.10;99.90;;;;;;4988614;28;20117;-85
2021/12/15 04:49:43;;;;;;;74.70;33.40;;;10.10;99.90;;;;;;4990456;28;20402;-85
2021/12/15 04:52:10;;;;;;;72.60;33.42;;;10.00;99.90;;;;;;4973268;28;20042;-85
2021/12/15 04:54:37;;;;;;;74.57;33.53;;;9.80;99.90;;;;;;4973388;28;20053;-85
2021/12/15 04:57:03;;;;;;;75.80;33.40;;;9.70;99.90;;;;;;4973348;28;20054;-85
2021/12/15 04:59:29;;;;;;;71.10;32.63;;;9.80;99.90;;;;;;4956707;28;20050;-85
2021/12/15 05:01:55;;;;;;;78.75;33.58;;;9.80;99.90;;;;;;4972601;28;20053;-85
2021/12/15 05:04:21;;;;;;;73.22;33.42;;;10.10;99.90;;;;;;4973986;28;20524;-85
2021/12/15 05:06:47;;;;;;;73.47;32.83;;;9.70;99.90;;;;;;4989075;28;20093;-85
2021/12/15 05:09:14;;;;;;;83.45;35.33;;;9.70;99.90;;;;;;4957348;28;20057;-85
2021/12/15 05:11:40;;;;;;;71.75;33.72;;;9.70;99.90;;;;;;4973468;28;20047;-85
2021/12/15 05:14:06;;;;;;;84.90;34.25;;;9.70;99.90;;;;;;4988896;28;20486;-85
2021/12/15 05:16:31;;;;;;;76.57;34.10;;;9.70;99.90;;;;;;4973151;28;20045;-84
2021/12/15 05:18:57;;;;;;;77.85;34.03;;;9.70;99.90;;;;;;4989187;28;20058;-85
2021/12/15 05:21:24;;;;;;;75.75;33.47;;;9.70;99.90;;;;;;4972215;28;20489;-85
2021/12/15 05:23:55;;;;;;;85.10;34.13;;;9.80;99.90;;;;;;4972905;28;20058;-85
2021/12/15 05:26:21;;;;;;;80.70;33.38;;;9.80;99.90;;;;;;4973154;28;20041;-85
2021/12/15 05:28:47;;;;;;;81.45;34.90;;;9.70;99.90;;;;;;4975863;28;20440;-84
2021/12/15 05:31:13;;;;;;;75.47;34.80;;;9.70;99.90;;;;;;4976253;28;20042;-84
2021/12/15 05:33:39;;;;;;;79.25;34.65;;;9.70;99.90;;;;;;4975399;28;20495;-87
2021/12/15 05:36:05;;;;;;;80.50;33.60;;;9.70;99.90;;;;;;4982318;28;20049;-85
2021/12/15 05:38:30;;;;;;;76.10;33.95;;;9.70;99.90;;;;;;4988244;28;20054;-84
2021/12/15 05:40:56;;;;;;;75.82;34.28;;;10.10;99.90;;;;;;4992450;28;20034;-85
2021/12/15 05:43:23;;;;;;;81.25;36.40;;;9.70;99.90;;;;;;4974905;28;20053;-84
2021/12/15 05:45:50;;;;;;;80.63;36.05;;;9.70;99.90;;;;;;4975868;28;20049;-84
2021/12/15 05:48:16;;;;;;;77.20;35.50;;;9.70;99.90;;;;;;4990940;28;20053;-84
2021/12/15 05:50:45;;;;;;;75.65;34.42;;;9.70;99.90;;;;;;4975020;28;20042;-84
2021/12/15 05:53:12;;;;;;;80.63;34.95;;;9.70;99.90;;;;;;4975141;28;20056;-84
2021/12/15 05:55:39;;;;;;;74.90;34.72;;;9.70;99.90;;;;;;4974925;28;20117;-84
2021/12/15 05:58:05;;;;;;;78.45;34.88;;;9.70;99.90;;;;;;4992028;28;20571;-84
2021/12/15 06:00:33;;;;;;;83.30;34.55;;;9.80;99.90;;;;;;4991314;28;20108;-84
2021/12/15 06:03:00;;;;;;;73.65;34.03;;;10.10;99.90;;;;;;4970955;28;20057;-84
2021/12/15 06:05:26;;;;;;;75.47;33.65;;;9.70;99.90;;;;;;4954888;28;20038;-84
2021/12/15 06:07:52;;;;;;;85.65;35.35;;;9.70;99.90;;;;;;4972366;28;20438;-84
2021/12/15 06:10:21;;;;;;;82.03;33.85;;;9.70;99.90;;;;;;4971263;28;20046;-84
2021/12/15 06:12:50;;;;;;;84.70;34.83;;;9.70;99.90;;;;;;4955825;28;20477;-84
2021/12/15 06:15:25;;;;;;;84.28;34.47;;;10.60;99.90;;;;;;4955818;28;20054;-84
2021/12/15 06:17:57;;;;;;;73.82;35.30;;;9.70;99.90;;;;;;4970840;28;20046;-84
2021/12/15 06:20:24;;;;;;;84.55;34.38;;;9.70;99.90;;;;;;4972351;28;20050;-84
2021/12/15 06:22:52;;;;;;;81.10;34.17;;;9.70;99.90;;;;;;4955796;28;20475;-84
2021/12/15 06:25:18;;;;;;;89.22;32.28;;;9.70;99.90;;;;;;4971138;28;20414;-84
2021/12/15 06:27:44;;;;;;;75.13;33.45;;;9.90;99.90;;;;;;4971805;28;20053;-84
2021/12/15 06:30:10;;;;;;;74.13;33.50;;;9.80;99.90;;;;;;4971710;28;20498;-84
2021/12/15 06:32:36;;;;;;;77.53;34.85;;;9.70;99.90;;;;;;4954378;28;20038;-84
2021/12/15 06:35:04;;;;;;;80.90;34.88;;;9.70;99.90;;;;;;4972072;28;20054;-85
2021/12/15 06:37:29;;;;;;;77.50;34.90;;;9.70;99.90;;;;;;4971331;28;20561;-84
2021/12/15 06:39:55;;;;;;;76.28;32.17;;;10.40;99.90;;;;;;4971051;28;20054;-84
2021/12/15 06:42:21;;;;;;;73.78;32.30;;;9.70;99.90;;;;;;4971153;28;20046;-84
2021/12/15 06:44:47;;;;;;;70.00;31.20;;;10.10;99.90;;;;;;4971190;28;20411;-84
2021/12/15 06:47:44;;;;;;;81.90;33.67;;;9.70;99.90;;;;;;4970969;28;20077;-84
2021/12/15 06:58:23;;;;;;;75.47;32.53;;;9.70;99.90;;;;;;4971606;28;20079;-84
2021/12/15 07:00:53;;;;;;;70.63;31.85;;;9.70;99.90;;;;;;4954137;28;20042;-83
2021/12/15 07:03:20;;;;;;;76.82;33.47;;;9.70;99.90;;;;;;4970847;28;20054;-84
2021/12/15 07:05:47;;;;;;;73.68;31.98;;;9.80;99.90;;;;;;4954674;28;20125;-85
2021/12/15 07:08:14;;;;;;;73.63;31.60;;;9.80;99.90;;;;;;4971459;28;20136;-84
2021/12/15 07:10:44;;;;;;;64.72;32.45;;;9.70;99.90;;;;;;4971446;28;20051;-84
2021/12/15 07:13:11;;;;;;;81.22;33.00;;;9.70;99.90;;;;;;4954620;28;20406;-84
2021/12/15 07:15:38;;;;;;;76.75;31.15;;;9.80;99.90;;;;;;4971157;28;20482;-85
2021/12/15 07:18:08;;;;;;;69.57;31.35;;;10.20;99.90;;;;;;4960130;28;20053;-84
2021/12/15 07:20:45;;;;;;;73.78;31.75;;;9.80;99.90;;;;;;4977195;28;20124;-84
2021/12/15 07:23:15;;;;;;;71.05;31.25;;;9.80;99.90;;;;;;4961726;28;20042;-84
2021/12/15 07:25:43;;;;;;;68.47;30.10;;;9.80;99.90;;;;;;4977947;28;20054;-84
2021/12/15 07:28:10;;;;;;;71.05;28.15;;;9.80;99.90;;;;;;4961847;28;20461;-85
2021/12/15 07:30:37;;;;;;;61.55;30.13;;;9.80;99.90;;;;;;4961752;28;20089;-85
2021/12/15 07:33:05;;;;;;;73.53;30.65;;;9.80;99.90;;;;;;4979557;28;20040;-84
2021/12/15 07:35:31;;;;;;;62.85;29.25;;;9.90;99.90;;;;;;4983828;28;20112;-84
2021/12/15 07:37:57;;;;;;;61.20;30.20;;;9.80;99.90;;;;;;4971433;28;20488;-84
2021/12/15 07:40:24;;;;;;;60.90;27.45;;;9.90;99.90;;;;;;4969395;28;20066;-84
2021/12/15 07:43:02;;;;;;;63.75;27.67;;;9.80;99.90;;;;;;4968638;28;20046;-84
2021/12/15 07:45:28;;;;;;;62.35;26.90;;;9.80;99.90;;;;;;4970050;28;20053;-84
2021/12/15 07:47:58;;;;;;;63.00;27.50;;;10.20;99.90;;;;;;4987375;28;20324;-84
2021/12/15 07:50:26;;;;;;;55.72;27.40;;;9.80;99.90;;;;;;4970606;28;20477;-84
2021/12/15 07:52:52;;;;;;;67.78;29.02;;;9.80;99.90;;;;;;4969343;28;20078;-84
2021/12/15 07:55:19;;;;;;;62.42;27.55;;;9.80;99.90;;;;;;4986181;28;20699;-83
2021/12/15 07:57:46;;;;;;;52.95;26.77;;;9.80;99.90;;;;;;5010692;28;20120;-84
2021/12/15 08:00:14;;;;;;;64.78;27.60;;;9.80;99.90;;;;;;4969795;28;20434;-83
2021/12/15 08:02:40;;;;;;;64.43;27.75;;;9.80;99.90;;;;;;4986277;28;20077;-84
2021/12/15 08:05:07;;;;;;;55.40;25.38;;;9.80;99.90;;;;;;5010843;28;20077;-83
2021/12/15 08:07:33;;;;;;;53.05;24.65;;;9.80;99.90;;;;;;4985867;28;20041;-84
2021/12/15 08:09:59;;;;;;;54.75;25.35;;;9.80;99.90;;;;;;4985442;28;20474;-83
2021/12/15 08:12:27;;;;;;;57.25;26.02;;;9.80;99.90;;;;;;4970587;28;20053;-84
2021/12/15 08:14:54;;;;;;;54.05;24.42;;;9.80;99.90;;;;;;4987398;28;20410;-83
2021/12/15 08:17:21;;;;;;;62.45;25.10;;;9.80;99.90;;;;;;4983418;28;20117;-84
2021/12/15 08:19:47;;;;;;;51.65;23.75;;;9.90;99.90;;;;;;4988300;28;20038;-84
2021/12/15 08:22:13;;;;;;;46.92;23.23;;;9.80;99.90;;;;;;4994567;28;20395;-84
2021/12/15 08:24:38;;;;;;;45.85;19.88;;;9.80;99.90;;;;;;4985120;28;20057;-84
2021/12/15 08:27:04;;;;;;;42.38;20.27;;;9.80;99.90;;;;;;4987384;28;20038;-84
2021/12/15 08:29:30;;;;;;;41.38;18.42;;;9.80;99.90;;;;;;4990853;28;20149;-84
2021/12/15 08:31:56;;;;;;;41.75;18.38;;;9.80;99.90;;;;;;4987168;28;20045;-83
2021/12/15 08:34:22;;;;;;;42.83;18.15;;;9.80;99.90;;;;;;4967746;28;20042;-83
2021/12/15 08:36:51;;;;;;;38.83;16.65;;;9.80;99.90;;;;;;4983236;28;20039;-83
2021/12/15 08:39:18;;;;;;;47.35;18.05;;;9.80;99.90;;;;;;4987259;28;20056;-83
2021/12/15 08:41:44;;;;;;;46.88;17.17;;;9.80;99.90;;;;;;4993330;28;20064;-83
2021/12/15 08:44:10;;;;;;;40.78;17.02;;;9.80;99.90;;;;;;4992738;28;20050;-83
2021/12/15 08:46:40;;;;;;;35.35;17.20;;;9.80;99.90;;;;;;4962492;28;20504;-84
2021/12/15 08:49:08;;;;;;;38.33;16.77;;;9.70;99.90;;;;;;4982341;28;20451;-84
2021/12/15 08:51:35;;;;;;;46.10;19.48;;;9.70;99.90;;;;;;5003876;28;20049;-83
2021/12/15 08:54:05;;;;;;;38.40;18.33;;;9.70;99.90;;;;;;4967096;28;20512;-83
2021/12/15 08:56:31;;;;;;;41.47;19.27;;;9.80;99.90;;;;;;4966900;28;20050;-83
2021/12/15 08:58:58;;;;;;;41.58;18.83;;;9.80;99.90;;;;;;4968350;28;20049;-83
2021/12/15 09:01:25;;;;;;;40.85;19.48;;;9.80;99.90;;;;;;4966655;28;20037;-84
2021/12/15 09:03:51;;;;;;;42.28;20.10;;;9.80;99.90;;;;;;4975015;28;20069;-84
2021/12/15 09:06:17;;;;;;;41.28;19.35;;;9.90;99.90;;;;;;4992051;28;20053;-83
2021/12/15 09:08:45;;;;;;;40.53;18.23;;;9.90;99.90;;;;;;4975590;28;20050;-84
2021/12/15 09:11:18;;;;;;;45.08;18.83;;;9.90;99.90;;;;;;4976443;28;20492;-84
2021/12/15 09:13:50;;;;;;;48.50;20.30;;;9.90;99.90;;;;;;4975775;28;20137;-85
2021/12/15 09:16:16;;;;;;;39.38;17.23;;;9.90;99.90;;;;;;4976242;28;20489;-84
2021/12/15 09:18:45;;;;;;;40.67;18.02;;;9.90;99.90;;;;;;4992347;28;20049;-84
2021/12/15 09:21:12;;;;;;;45.42;17.63;;;10.20;99.90;;;;;;4976126;28;20041;-84
2021/12/15 09:23:39;;;;;;;36.60;17.05;;;10.00;99.90;;;;;;4992743;28;20057;-85
2021/12/15 09:26:06;;;;;;;34.60;17.77;;;9.90;99.90;;;;;;4976820;28;20044;-84
2021/12/15 09:28:32;;;;;;;33.90;17.13;;;10.00;99.90;;;;;;4989326;28;20050;-85
2021/12/15 09:30:59;;;;;;;37.95;17.10;;;10.00;99.90;;;;;;4957603;28;21009;-85
2021/12/15 09:33:29;;;;;;;43.40;17.30;;;10.10;99.90;;;;;;4988003;28;20049;-84
2021/12/15 09:35:55;;;;;;;31.42;16.73;;;9.90;99.90;;;;;;4973510;28;20042;-85
2021/12/15 09:38:22;;;;;;;43.05;17.17;;;9.90;99.90;;;;;;4972426;28;20049;-85
2021/12/15 09:40:50;;;;;;;40.05;16.70;;;10.00;99.90;;;;;;4972525;28;20493;-85
2021/12/15 09:43:16;;;;;;;32.70;16.77;;;10.30;99.90;;;;;;4988890;28;20467;-85
2021/12/15 09:45:51;;;;;;;34.45;16.15;;;10.20;99.90;;;;;;4956997;28;20073;-85
2021/12/15 10:02:07;;;;;;;35.95;15.38;;;10.10;99.90;;;;;;4972016;28;20117;-84
2021/12/15 10:04:44;;;;;;;26.58;14.15;;;10.10;99.90;;;;;;4988326;28;20133;-84
2021/12/15 10:07:23;;;;;;;30.60;13.75;;;10.20;99.90;;;;;;4972420;28;20046;-85
2021/12/15 10:18:25;;;;;;;23.15;11.40;;;10.30;99.90;;;;;;4971623;28;20046;-84
2021/12/15 10:20:51;;;;;;;26.38;11.35;;;10.30;99.90;;;;;;4972153;28;20047;-84
2021/12/15 10:23:23;;;;;;;20.23;11.50;;;10.40;99.90;;;;;;4971229;28;20050;-84
2021/12/15 10:25:53;;;;;;;24.55;11.38;;;10.30;99.90;;;;;;4972026;28;20136;-84
2021/12/15 10:28:25;;;;;;;22.10;11.40;;;10.30;99.90;;;;;;4971928;28;20622;-84
2021/12/15 10:31:00;;;;;;;27.83;12.18;;;10.50;99.90;;;;;;4987823;28;20072;-85
2021/12/15 10:33:29;;;;;;;23.25;12.02;;;10.30;99.90;;;;;;4971762;28;20120;-84
2021/12/15 10:36:01;;;;;;;25.02;12.20;;;10.20;99.90;;;;;;4972593;28;20050;-84
2021/12/15 10:38:30;;;;;;;27.23;12.35;;;10.20;99.90;;;;;;4986755;28;20057;-84
2021/12/15 10:41:09;;;;;;;28.10;12.60;;;10.20;99.90;;;;;;4983969;28;20050;-87
2021/12/15 10:43:37;;;;;;;28.85;13.93;;;10.30;99.90;;;;;;5003749;28;20054;-83
2021/12/15 10:46:10;;;;;;;21.85;12.13;;;10.20;99.90;;;;;;4987420;28;20038;-83
2021/12/15 10:48:43;;;;;;;32.47;12.55;;;10.20;99.90;;;;;;4970558;28;20062;-83
2021/12/15 10:51:30;;;;;;;23.63;12.65;;;10.20;99.90;;;;;;4962888;28;20047;-83
2021/12/15 10:54:01;;;;;;;23.25;12.13;;;10.30;99.90;;;;;;4961217;28;20050;-83
2021/12/15 10:56:32;;;;;;;26.83;12.10;;;10.30;99.90;;;;;;4965699;28;20081;-83
2021/12/15 10:59:04;;;;;;;23.98;10.95;;;10.30;99.90;;;;;;4979971;28;20403;-83
2021/12/15 11:01:34;;;;;;;26.73;11.82;;;10.30;99.90;;;;;;4965964;28;20116;-83
2021/12/15 11:04:00;;;;;;;28.33;12.00;;;10.30;99.90;;;;;;4989256;28;20046;-83
2021/12/15 11:06:33;;;;;;;27.70;11.93;;;10.40;99.90;;;;;;4963230;28;20418;-83
2021/12/15 11:09:18;;;;;;;24.50;11.35;;;10.40;99.90;;;;;;4964724;28;20044;-83
2021/12/15 11:11:59;;;;;;;18.75;10.73;;;10.40;99.90;;;;;;4990083;28;20137;-83
2021/12/15 11:14:31;;;;;;;24.45;11.10;;;10.40;99.90;;;;;;4959800;28;20050;-83
2021/12/15 11:17:12;;;;;;;23.80;10.65;;;10.30;99.90;;;;;;4954680;28;20410;-82
2021/12/15 11:19:45;;;;;;;22.20;10.68;;;10.30;99.90;;;;;;5006197;28;20054;-82
2021/12/15 11:22:29;;;;;;;23.63;10.90;;;10.30;99.90;;;;;;4974634;28;20423;-82
2021/12/15 11:24:55;;;;;;;30.13;11.40;;;10.40;99.90;;;;;;4975140;28;20112;-82
2021/12/15 11:27:21;;;;;;;21.95;10.30;;;10.40;99.90;;;;;;4973275;28;20042;-82
2021/12/15 11:29:47;;;;;;;23.13;10.73;;;10.40;99.90;;;;;;4968567;28;20057;-82
2021/12/15 11:32:36;;;;;;;24.10;11.73;;;10.40;99.90;;;;;;4964478;28;20038;-82
2021/12/15 11:35:12;;;;;;;19.63;9.57;;;10.50;99.90;;;;;;4952023;28;20057;-82
2021/12/15 11:37:45;;;;;;;19.27;11.18;;;10.50;99.90;;;;;;4950175;28;20051;-82
2021/12/15 11:40:12;;;;;;;24.35;11.38;;;10.50;99.90;;;;;;4951213;28;20057;-81
2021/12/15 11:42:39;;;;;;;24.70;10.60;;;10.50;99.90;;;;;;4967796;28;20046;-82
2021/12/15 11:45:08;;;;;;;19.10;10.43;;;10.50;99.90;;;;;;4968792;28;20125;-82
2021/12/15 11:47:35;;;;;;;28.67;10.95;;;10.60;99.90;;;;;;4950472;28;20053;-82
2021/12/15 11:50:09;;;;;;;21.83;9.82;;;10.60;99.90;;;;;;4985248;28;20085;-83
2021/12/15 11:52:39;;;;;;;18.92;10.27;;;10.60;99.90;;;;;;4972114;28;20042;-82
2021/12/15 11:55:07;;;;;;;22.33;9.88;;;10.70;99.90;;;;;;4990401;28;20132;-82
2021/12/15 11:57:34;;;;;;;21.60;9.38;;;10.70;99.90;;;;;;4966107;28;20125;-82
2021/12/15 12:00:09;;;;;;;18.90;8.82;;;10.70;99.90;;;;;;4955407;28;20054;-82
2021/12/15 12:02:38;;;;;;;18.75;7.68;;;10.70;99.90;;;;;;4969087;28;20049;-85
2021/12/15 12:05:06;;;;;;;17.90;7.65;;;10.70;99.90;;;;;;4989964;28;20073;-81
2021/12/15 12:07:45;;;;;;;19.35;6.93;;;10.70;99.90;;;;;;4990908;28;20101;-85
2021/12/15 12:10:19;;;;;;;16.73;5.45;;;10.70;99.90;;;;;;4977061;28;20056;-81
2021/12/15 12:12:52;;;;;;;13.23;4.60;;;10.70;99.90;;;;;;4976669;28;20120;-82
2021/12/15 12:15:20;;;;;;;;;;;10.70;99.90;;;;;;4993674;28;20054;-82
2021/12/15 12:17:49;;;;;;;11.40;3.65;;;10.70;99.90;;;;;;4976163;28;19972;-81
2021/12/15 12:20:20;;;;;;;10.95;3.78;;;10.60;99.90;;;;;;4959439;28;20050;-81
2021/12/15 12:22:48;;;;;;;10.38;3.38;;;10.60;99.90;;;;;;4990532;28;20566;-81
2021/12/15 12:25:18;;;;;;;17.40;4.32;;;10.50;99.90;;;;;;4974320;28;20078;-82
2021/12/15 12:27:45;;;;;;;14.90;4.00;;;10.50;99.90;;;;;;4973929;28;20406;-82
2021/12/15 12:30:16;;;;;;;10.85;3.15;;;10.70;99.90;;;;;;4989692;28;20038;-82
2021/12/15 12:32:43;;;;;;;11.68;3.60;;;10.50;99.90;;;;;;4956495;28;20417;-81
2021/12/15 12:35:10;;;;;;;13.00;3.25;;;10.40;99.90;;;;;;4974594;28;20057;-81
2021/12/15 12:37:37;;;;;;;10.05;3.05;;;10.40;99.90;;;;;;4972874;28;20054;-81
2021/12/15 12:40:17;;;;;;;13.25;3.50;;;10.40;99.90;;;;;;4974260;28;20047;-81
2021/12/15 12:42:43;;;;;;;12.30;3.22;;;10.30;99.90;;;;;;4990252;28;20046;-81
2021/12/15 12:45:15;;;;;;;10.25;2.97;;;10.30;99.90;;;;;;4973378;28;20568;-81
2021/12/15 12:47:59;;;;;;;11.27;2.72;;;10.20;99.90;;;;;;4989338;28;20053;-81
2021/12/15 12:50:52;;;;;;;9.93;3.03;;;10.30;99.90;;;;;;4957098;28;20050;-80
2021/12/15 12:58:00;;;;;;;12.38;3.50;;;10.00;99.90;;;;;;4973574;28;20050;-81
2021/12/15 12:59:29;;;;;;;13.00;3.78;;;10.50;99.90;;;;;;4972533;28;20126;-81
2021/12/15 13:01:56;;;;;;;14.50;3.63;;;10.00;99.90;;;;;;4972694;28;20402;-81
2021/12/15 13:04:34;;;;;;;12.80;3.92;;;10.00;99.90;;;;;;4973649;28;20054;-81
2021/12/15 13:06:59;;;;;;;14.68;3.55;;;10.30;99.90;;;;;;4973672;28;20065;-81
2021/12/15 13:09:25;;;;;;;14.18;3.42;;;10.00;99.90;;;;;;4973437;28;20039;-81
2021/12/15 13:11:52;;;;;;;14.18;4.45;;;10.00;99.90;;;;;;4972624;28;20051;-81
2021/12/15 13:14:31;;;;;;;9.85;2.97;;;10.00;99.90;;;;;;4973106;28;20058;-81
2021/12/15 13:17:02;;;;;;;8.27;3.28;;;10.10;99.90;;;;;;4989215;28;20052;-81
2021/12/15 13:19:42;;;;;;;10.00;2.45;;;10.10;99.90;;;;;;4955891;28;20089;-81
2021/12/15 13:30:39;;;;;;;11.93;2.60;;;10.10;99.90;;;;;;4973055;28;20058;-81
2021/12/15 13:33:16;;;;;;;6.33;2.00;;;10.00;99.90;;;;;;4971794;28;20047;-81
2021/12/15 13:35:46;;;;;;;9.30;2.30;;;10.00;99.90;;;;;;4972876;28;20301;-81
2021/12/15 13:38:12;;;;;;;9.00;2.15;;;9.90;99.90;;;;;;4957581;28;20042;-81
2021/12/15 13:40:53;;;;;;;9.30;2.17;;;9.80;99.90;;;;;;4972387;28;20383;-81
2021/12/15 13:43:45;;;;;;;7.95;1.85;;;9.80;99.90;;;;;;4989085;28;20058;-81
2021/12/15 13:46:32;;;;;;;12.00;1.70;;;9.80;99.90;;;;;;4973223;28;20058;-81
2021/12/15 13:49:23;;;;;;;7.88;1.90;;;9.70;99.90;;;;;;4955909;28;20529;-81
2021/12/15 13:51:52;;;;;;;9.30;2.28;;;9.70;99.90;;;;;;4972186;28;20058;-81
2021/12/15 13:54:43;;;;;;;13.40;1.95;;;9.60;99.90;;;;;;4972245;28;20490;-81